sensor_id;sensor_type;location;lat;lon;timestamp;temperature;humidity
8114;DHT22;4099;52.684;9.918;2023-07-08T00:04:36;16.50;99.90
8114;DHT22;4099;52.684;9.918;2023-07-08T00:09:40;16.50;99.90
8114;DHT22;4099;52.684;9.918;2023-07-08T00:14:42;16.50;99.90
8114;DHT22;4099;52.684;9.918;2023-07-08T00:19:44;16.40;99.90
8114;DHT22;4099;52.684;9.918;2023-07-08T00:24:47;16.40;99.90
8114;DHT22;4099;52.684;9.918;2023-07-08T00:29:49;16.50;99.90
8114;DHT22;4099;52.684;9.918;2023-07-08T00:34:50;16.40;99.90
8114;DHT22;4099;52.684;9.918;2023-07-08T00:39:54;16.30;99.90
8114;DHT22;4099;52.684;9.918;2023-07-08T00:44:55;16.30;99.90
8114;DHT22;4099;52.684;9.918;2023-07-08T00:50:02;16.20;99.90
8114;DHT22;4099;52.684;9.918;2023-07-08T00:55:09;16.10;99.90
8114;DHT22;4099;52.684;9.918;2023-07-08T01:00:14;15.90;99.90
8114;DHT22;4099;52.684;9.918;2023-07-08T01:05:19;15.80;99.90
8114;DHT22;4099;52.684;9.918;2023-07-08T01:10:27;16.00;99.90
8114;DHT22;4099;52.684;9.918;2023-07-08T01:15:35;15.70;99.90
8114;DHT22;4099;52.684;9.918;2023-07-08T01:20:39;15.50;99.90
8114;DHT22;4099;52.684;9.918;2023-07-08T01:25:43;15.60;99.90
8114;DHT22;4099;52.684;9.918;2023-07-08T01:30:46;15.40;99.90
8114;DHT22;4099;52.684;9.918;2023-07-08T01:35:50;15.50;99.90
8114;DHT22;4099;52.684;9.918;2023-07-08T01:40:54;15.50;99.90
8114;DHT22;4099;52.684;9.918;2023-07-08T01:45:58;15.30;99.90
8114;DHT22;4099;52.684;9.918;2023-07-08T01:51:06;15.00;99.90
8114;DHT22;4099;52.684;9.918;2023-07-08T01:56:12;14.90;99.90
8114;DHT22;4099;52.684;9.918;2023-07-08T02:01:14;14.90;99.90
8114;DHT22;4099;52.684;9.918;2023-07-08T02:06:16;14.90;99.90
8114;DHT22;4099;52.684;9.918;2023-07-08T02:11:19;15.00;99.90
8114;DHT22;4099;52.684;9.918;2023-07-08T02:16:22;14.90;99.90
8114;DHT22;4099;52.684;9.918;2023-07-08T02:21:24;14.80;99.90
8114;DHT22;4099;52.684;9.918;2023-07-08T02:26:28;14.70;99.90
8114;DHT22;4099;52.684;9.918;2023-07-08T02:31:32;14.60;99.90
8114;DHT22;4099;52.684;9.918;2023-07-08T02:36:34;14.60;99.90
8114;DHT22;4099;52.684;9.918;2023-07-08T02:41:41;14.50;99.90
8114;DHT22;4099;52.684;9.918;2023-07-08T02:46:43;14.70;99.90
8114;DHT22;4099;52.684;9.918;2023-07-08T02:51:45;14.50;99.90
8114;DHT22;4099;52.684;9.918;2023-07-08T02:56:48;14.40;99.90
8114;DHT22;4099;52.684;9.918;2023-07-08T03:01:49;14.30;99.90
8114;DHT22;4099;52.684;9.918;2023-07-08T03:06:51;14.20;99.90
8114;DHT22;4099;52.684;9.918;2023-07-08T03:11:55;14.30;99.90
8114;DHT22;4099;52.684;9.918;2023-07-08T03:16:56;14.30;99.90
8114;DHT22;4099;52.684;9.918;2023-07-08T03:21:58;14.30;99.90
8114;DHT22;4099;52.684;9.918;2023-07-08T03:27:05;14.30;99.90
8114;DHT22;4099;52.684;9.918;2023-07-08T03:32:11;14.30;99.90
8114;DHT22;4099;52.684;9.918;2023-07-08T03:37:13;14.20;99.90
8114;DHT22;4099;52.684;9.918;2023-07-08T03:42:16;14.30;99.90
8114;DHT22;4099;52.684;9.918;2023-07-08T03:47:18;14.40;99.90
8114;DHT22;4099;52.684;9.918;2023-07-08T03:52:22;14.30;99.90
8114;DHT22;4099;52.684;9.918;2023-07-08T03:57:26;14.30;99.90
8114;DHT22;4099;52.684;9.918;2023-07-08T04:02:29;14.30;99.90
8114;DHT22;4099;52.684;9.918;2023-07-08T04:07:31;14.30;99.90
8114;DHT22;4099;52.684;9.918;2023-07-08T04:12:34;14.30;99.90
8114;DHT22;4099;52.684;9.918;2023-07-08T04:17:41;14.40;99.90
8114;DHT22;4099;52.684;9.918;2023-07-08T04:22:45;14.50;99.90
8114;DHT22;4099;52.684;9.918;2023-07-08T04:27:51;14.60;99.90
8114;DHT22;4099;52.684;9.918;2023-07-08T04:32:52;14.70;99.90
8114;DHT22;4099;52.684;9.918;2023-07-08T04:37:56;14.70;99.90
8114;DHT22;4099;52.684;9.918;2023-07-08T04:42:59;14.90;99.90
8114;DHT22;4099;52.684;9.918;2023-07-08T04:48:01;14.90;99.90
8114;DHT22;4099;52.684;9.918;2023-07-08T04:53:13;15.20;99.90
8114;DHT22;4099;52.684;9.918;2023-07-08T04:58:16;15.50;99.90
8114;DHT22;4099;52.684;9.918;2023-07-08T05:03:18;15.70;99.90
8114;DHT22;4099;52.684;9.918;2023-07-08T05:08:20;16.00;99.90
8114;DHT22;4099;52.684;9.918;2023-07-08T05:13:23;16.20;99.90
8114;DHT22;4099;52.684;9.918;2023-07-08T05:18:25;16.40;99.90
8114;DHT22;4099;52.684;9.918;2023-07-08T05:23:27;16.60;99.90
8114;DHT22;4099;52.684;9.918;2023-07-08T05:28:30;16.80;99.90
8114;DHT22;4099;52.684;9.918;2023-07-08T05:33:33;17.00;99.90
8114;DHT22;4099;52.684;9.918;2023-07-08T05:38:34;17.30;99.90
8114;DHT22;4099;52.684;9.918;2023-07-08T05:43:38;17.80;99.90
8114;DHT22;4099;52.684;9.918;2023-07-08T05:48:40;18.10;99.90
8114;DHT22;4099;52.684;9.918;2023-07-08T05:53:41;18.40;99.90
8114;DHT22;4099;52.684;9.918;2023-07-08T05:58:44;18.50;99.90
8114;DHT22;4099;52.684;9.918;2023-07-08T06:03:47;18.70;99.90
8114;DHT22;4099;52.684;9.918;2023-07-08T06:08:48;18.90;99.90
8114;DHT22;4099;52.684;9.918;2023-07-08T06:13:51;19.20;99.90
8114;DHT22;4099;52.684;9.918;2023-07-08T06:18:53;19.70;99.90
8114;DHT22;4099;52.684;9.918;2023-07-08T06:23:55;19.90;99.90
8114;DHT22;4099;52.684;9.918;2023-07-08T06:28:58;20.30;99.90
8114;DHT22;4099;52.684;9.918;2023-07-08T06:34:00;20.70;99.90
8114;DHT22;4099;52.684;9.918;2023-07-08T06:39:02;21.20;99.90
8114;DHT22;4099;52.684;9.918;2023-07-08T06:44:08;21.50;99.90
8114;DHT22;4099;52.684;9.918;2023-07-08T06:49:10;21.90;99.90
8114;DHT22;4099;52.684;9.918;2023-07-08T06:54:12;22.10;99.90
8114;DHT22;4099;52.684;9.918;2023-07-08T06:59:15;22.40;99.50
8114;DHT22;4099;52.684;9.918;2023-07-08T07:04:17;22.80;99.90
8114;DHT22;4099;52.684;9.918;2023-07-08T07:09:19;23.10;97.60
8114;DHT22;4099;52.684;9.918;2023-07-08T07:14:22;23.50;97.60
8114;DHT22;4099;52.684;9.918;2023-07-08T07:19:24;23.80;96.30
8114;DHT22;4099;52.684;9.918;2023-07-08T07:24:26;23.80;97.00
8114;DHT22;4099;52.684;9.918;2023-07-08T07:29:39;24.10;95.60
8114;DHT22;4099;52.684;9.918;2023-07-08T07:34:41;24.60;95.10
8114;DHT22;4099;52.684;9.918;2023-07-08T07:39:44;25.10;94.50
8114;DHT22;4099;52.684;9.918;2023-07-08T07:44:47;25.30;95.00
8114;DHT22;4099;52.684;9.918;2023-07-08T07:49:49;25.90;93.80
8114;DHT22;4099;52.684;9.918;2023-07-08T07:54:51;26.10;92.50
8114;DHT22;4099;52.684;9.918;2023-07-08T07:59:55;26.50;91.50
8114;DHT22;4099;52.684;9.918;2023-07-08T08:04:57;26.50;90.90
8114;DHT22;4099;52.684;9.918;2023-07-08T08:09:59;26.70;90.70
8114;DHT22;4099;52.684;9.918;2023-07-08T08:15:02;27.00;92.00
8114;DHT22;4099;52.684;9.918;2023-07-08T08:20:05;27.40;90.70
8114;DHT22;4099;52.684;9.918;2023-07-08T08:25:07;27.60;90.70
8114;DHT22;4099;52.684;9.918;2023-07-08T08:30:13;27.70;89.40
8114;DHT22;4099;52.684;9.918;2023-07-08T08:35:17;28.30;87.00
8114;DHT22;4099;52.684;9.918;2023-07-08T08:40:20;28.30;85.20
8114;DHT22;4099;52.684;9.918;2023-07-08T08:45:23;28.60;85.20
8114;DHT22;4099;52.684;9.918;2023-07-08T08:50:30;28.80;84.30
8114;DHT22;4099;52.684;9.918;2023-07-08T08:55:32;28.90;82.60
8114;DHT22;4099;52.684;9.918;2023-07-08T09:00:51;29.00;80.20
8114;DHT22;4099;52.684;9.918;2023-07-08T09:05:58;29.20;81.10
8114;DHT22;4099;52.684;9.918;2023-07-08T09:11:07;29.40;79.40
8114;DHT22;4099;52.684;9.918;2023-07-08T09:16:24;29.90;80.20
8114;DHT22;4099;52.684;9.918;2023-07-08T09:21:43;30.20;78.50
8114;DHT22;4099;52.684;9.918;2023-07-08T09:26:47;30.60;80.60
8114;DHT22;4099;52.684;9.918;2023-07-08T09:31:51;30.70;77.10
8114;DHT22;4099;52.684;9.918;2023-07-08T09:36:53;30.70;76.80
8114;DHT22;4099;52.684;9.918;2023-07-08T09:41:55;31.10;78.30
8114;DHT22;4099;52.684;9.918;2023-07-08T09:46:59;31.30;74.10
8114;DHT22;4099;52.684;9.918;2023-07-08T09:52:02;31.70;73.40
8114;DHT22;4099;52.684;9.918;2023-07-08T09:57:09;31.90;73.70
8114;DHT22;4099;52.684;9.918;2023-07-08T10:02:40;31.90;71.90
8114;DHT22;4099;52.684;9.918;2023-07-08T10:07:44;31.90;71.20
8114;DHT22;4099;52.684;9.918;2023-07-08T10:12:54;31.80;69.40
8114;DHT22;4099;52.684;9.918;2023-07-08T10:17:58;32.20;67.10
8114;DHT22;4099;52.684;9.918;2023-07-08T10:23:08;32.50;66.30
8114;DHT22;4099;52.684;9.918;2023-07-08T10:28:25;32.70;63.70
8114;DHT22;4099;52.684;9.918;2023-07-08T10:33:42;32.10;62.70
8114;DHT22;4099;52.684;9.918;2023-07-08T10:38:57;32.50;61.00
8114;DHT22;4099;52.684;9.918;2023-07-08T10:44:06;32.80;62.30
8114;DHT22;4099;52.684;9.918;2023-07-08T10:49:22;32.90;63.80
8114;DHT22;4099;52.684;9.918;2023-07-08T10:54:49;33.30;60.90
8114;DHT22;4099;52.684;9.918;2023-07-08T10:59:57;33.80;56.10
8114;DHT22;4099;52.684;9.918;2023-07-08T11:05:11;33.60;57.20
8114;DHT22;4099;52.684;9.918;2023-07-08T11:10:18;34.10;58.40
8114;DHT22;4099;52.684;9.918;2023-07-08T11:15:25;33.90;53.90
8114;DHT22;4099;52.684;9.918;2023-07-08T11:20:37;34.30;54.00
8114;DHT22;4099;52.684;9.918;2023-07-08T11:25:40;34.40;52.10
8114;DHT22;4099;52.684;9.918;2023-07-08T11:30:45;34.10;57.00
8114;DHT22;4099;52.684;9.918;2023-07-08T11:35:53;34.40;51.40
8114;DHT22;4099;52.684;9.918;2023-07-08T11:41:01;34.90;49.10
8114;DHT22;4099;52.684;9.918;2023-07-08T11:46:05;34.80;51.20
8114;DHT22;4099;52.684;9.918;2023-07-08T11:51:09;35.40;49.40
8114;DHT22;4099;52.684;9.918;2023-07-08T11:56:20;35.40;53.30
8114;DHT22;4099;52.684;9.918;2023-07-08T12:01:25;35.90;46.80
8114;DHT22;4099;52.684;9.918;2023-07-08T12:06:46;35.40;43.80
8114;DHT22;4099;52.684;9.918;2023-07-08T12:17:12;35.10;46.90
8114;DHT22;4099;52.684;9.918;2023-07-08T12:22:15;35.70;46.20
8114;DHT22;4099;52.684;9.918;2023-07-08T12:27:19;36.40;43.10
8114;DHT22;4099;52.684;9.918;2023-07-08T12:32:21;35.70;40.30
8114;DHT22;4099;52.684;9.918;2023-07-08T12:37:27;35.70;44.80
8114;DHT22;4099;52.684;9.918;2023-07-08T12:42:30;36.00;41.50
8114;DHT22;4099;52.684;9.918;2023-07-08T12:47:32;36.00;41.60
8114;DHT22;4099;52.684;9.918;2023-07-08T12:52:35;36.30;42.50
8114;DHT22;4099;52.684;9.918;2023-07-08T12:57:37;36.30;42.00
8114;DHT22;4099;52.684;9.918;2023-07-08T13:02:39;35.40;41.20
8114;DHT22;4099;52.684;9.918;2023-07-08T13:07:43;35.70;41.50
8114;DHT22;4099;52.684;9.918;2023-07-08T13:12:46;35.90;44.00
8114;DHT22;4099;52.684;9.918;2023-07-08T13:17:50;36.30;42.70
8114;DHT22;4099;52.684;9.918;2023-07-08T13:22:56;36.20;38.80
8114;DHT22;4099;52.684;9.918;2023-07-08T13:28:00;35.90;40.90
8114;DHT22;4099;52.684;9.918;2023-07-08T13:33:02;35.40;39.30
8114;DHT22;4099;52.684;9.918;2023-07-08T13:38:05;36.40;42.20
8114;DHT22;4099;52.684;9.918;2023-07-08T13:43:07;37.40;37.60
8114;DHT22;4099;52.684;9.918;2023-07-08T13:48:17;37.30;37.60
8114;DHT22;4099;52.684;9.918;2023-07-08T13:53:24;36.40;35.00
8114;DHT22;4099;52.684;9.918;2023-07-08T13:58:28;35.20;36.90
8114;DHT22;4099;52.684;9.918;2023-07-08T14:03:30;34.20;37.50
8114;DHT22;4099;52.684;9.918;2023-07-08T14:08:34;34.70;40.90
8114;DHT22;4099;52.684;9.918;2023-07-08T14:13:35;35.80;38.20
8114;DHT22;4099;52.684;9.918;2023-07-08T14:18:37;36.40;39.60
8114;DHT22;4099;52.684;9.918;2023-07-08T14:23:40;35.70;33.10
8114;DHT22;4099;52.684;9.918;2023-07-08T14:28:42;34.80;36.00
8114;DHT22;4099;52.684;9.918;2023-07-08T14:33:44;34.20;39.50
8114;DHT22;4099;52.684;9.918;2023-07-08T14:38:47;33.80;37.30
8114;DHT22;4099;52.684;9.918;2023-07-08T14:43:49;34.50;36.00
8114;DHT22;4099;52.684;9.918;2023-07-08T14:48:51;35.40;35.40
8114;DHT22;4099;52.684;9.918;2023-07-08T14:53:54;36.80;34.70
8114;DHT22;4099;52.684;9.918;2023-07-08T14:58:56;37.60;35.90
8114;DHT22;4099;52.684;9.918;2023-07-08T15:03:58;38.40;36.50
8114;DHT22;4099;52.684;9.918;2023-07-08T15:09:01;37.60;34.20
8114;DHT22;4099;52.684;9.918;2023-07-08T15:14:04;35.90;34.30
8114;DHT22;4099;52.684;9.918;2023-07-08T15:19:10;34.90;33.00
8114;DHT22;4099;52.684;9.918;2023-07-08T15:24:14;33.90;32.90
8114;DHT22;4099;52.684;9.918;2023-07-08T15:29:20;33.10;34.70
8114;DHT22;4099;52.684;9.918;2023-07-08T15:34:22;32.80;35.40
8114;DHT22;4099;52.684;9.918;2023-07-08T15:39:26;32.70;36.00
8114;DHT22;4099;52.684;9.918;2023-07-08T15:44:27;32.60;35.80
8114;DHT22;4099;52.684;9.918;2023-07-08T15:49:29;32.90;35.80
8114;DHT22;4099;52.684;9.918;2023-07-08T15:54:33;33.80;35.90
8114;DHT22;4099;52.684;9.918;2023-07-08T15:59:34;34.00;32.90
8114;DHT22;4099;52.684;9.918;2023-07-08T16:04:37;33.70;37.30
8114;DHT22;4099;52.684;9.918;2023-07-08T16:09:40;35.70;35.20
8114;DHT22;4099;52.684;9.918;2023-07-08T16:14:42;38.80;33.80
8114;DHT22;4099;52.684;9.918;2023-07-08T16:19:44;39.30;29.20
8114;DHT22;4099;52.684;9.918;2023-07-08T16:24:47;37.70;29.70
8114;DHT22;4099;52.684;9.918;2023-07-08T16:29:49;35.70;30.00
8114;DHT22;4099;52.684;9.918;2023-07-08T16:34:52;35.70;36.70
8114;DHT22;4099;52.684;9.918;2023-07-08T16:39:56;35.70;30.40
8114;DHT22;4099;52.684;9.918;2023-07-08T16:44:58;37.00;30.70
8114;DHT22;4099;52.684;9.918;2023-07-08T16:50:00;38.90;28.10
8114;DHT22;4099;52.684;9.918;2023-07-08T16:55:07;40.30;31.40
8114;DHT22;4099;52.684;9.918;2023-07-08T17:00:12;39.60;30.20
8114;DHT22;4099;52.684;9.918;2023-07-08T17:05:19;39.70;32.20
8114;DHT22;4099;52.684;9.918;2023-07-08T17:10:23;37.60;31.40
8114;DHT22;4099;52.684;9.918;2023-07-08T17:15:27;38.10;33.60
8114;DHT22;4099;52.684;9.918;2023-07-08T17:20:32;39.20;29.80
8114;DHT22;4099;52.684;9.918;2023-07-08T17:25:37;40.20;32.30
8114;DHT22;4099;52.684;9.918;2023-07-08T17:30:39;40.10;29.70
8114;DHT22;4099;52.684;9.918;2023-07-08T17:35:42;38.50;29.90
8114;DHT22;4099;52.684;9.918;2023-07-08T17:40:45;36.50;30.90
8114;DHT22;4099;52.684;9.918;2023-07-08T17:45:47;35.10;33.20
8114;DHT22;4099;52.684;9.918;2023-07-08T17:50:48;33.40;35.60
8114;DHT22;4099;52.684;9.918;2023-07-08T17:55:52;32.10;34.40
8114;DHT22;4099;52.684;9.918;2023-07-08T18:00:54;31.10;34.30
8114;DHT22;4099;52.684;9.918;2023-07-08T18:05:56;30.60;37.80
8114;DHT22;4099;52.684;9.918;2023-07-08T18:10:59;30.00;38.90
8114;DHT22;4099;52.684;9.918;2023-07-08T18:16:02;29.40;40.30
8114;DHT22;4099;52.684;9.918;2023-07-08T18:21:09;29.10;40.80
8114;DHT22;4099;52.684;9.918;2023-07-08T18:26:17;28.70;41.60
8114;DHT22;4099;52.684;9.918;2023-07-08T18:31:28;28.30;40.00
8114;DHT22;4099;52.684;9.918;2023-07-08T18:36:31;28.00;40.60
8114;DHT22;4099;52.684;9.918;2023-07-08T18:41:39;27.60;42.30
8114;DHT22;4099;52.684;9.918;2023-07-08T18:46:41;27.40;44.00
8114;DHT22;4099;52.684;9.918;2023-07-08T18:51:43;27.10;43.20
8114;DHT22;4099;52.684;9.918;2023-07-08T18:56:49;26.80;45.30
8114;DHT22;4099;52.684;9.918;2023-07-08T19:01:51;26.40;45.70
8114;DHT22;4099;52.684;9.918;2023-07-08T19:06:54;26.10;45.90
8114;DHT22;4099;52.684;9.918;2023-07-08T19:11:59;25.70;46.40
8114;DHT22;4099;52.684;9.918;2023-07-08T19:17:02;25.40;46.40
8114;DHT22;4099;52.684;9.918;2023-07-08T19:22:04;25.10;46.00
8114;DHT22;4099;52.684;9.918;2023-07-08T19:27:13;24.90;50.30
8114;DHT22;4099;52.684;9.918;2023-07-08T19:32:16;24.60;51.30
8114;DHT22;4099;52.684;9.918;2023-07-08T19:37:18;24.40;50.90
8114;DHT22;4099;52.684;9.918;2023-07-08T19:42:26;24.10;53.50
8114;DHT22;4099;52.684;9.918;2023-07-08T19:47:28;23.90;52.30
8114;DHT22;4099;52.684;9.918;2023-07-08T19:52:30;23.60;53.50
8114;DHT22;4099;52.684;9.918;2023-07-08T19:57:43;23.40;54.30
8114;DHT22;4099;52.684;9.918;2023-07-08T20:02:45;23.10;55.30
8114;DHT22;4099;52.684;9.918;2023-07-08T20:07:46;22.90;57.00
8114;DHT22;4099;52.684;9.918;2023-07-08T20:12:50;22.90;62.70
8114;DHT22;4099;52.684;9.918;2023-07-08T20:17:56;22.80;70.10
8114;DHT22;4099;52.684;9.918;2023-07-08T20:22:59;22.60;80.90
8114;DHT22;4099;52.684;9.918;2023-07-08T20:28:03;22.50;89.20
8114;DHT22;4099;52.684;9.918;2023-07-08T20:33:08;22.40;93.90
8114;DHT22;4099;52.684;9.918;2023-07-08T20:38:13;22.50;94.60
8114;DHT22;4099;52.684;9.918;2023-07-08T20:43:18;22.40;94.40
8114;DHT22;4099;52.684;9.918;2023-07-08T20:48:25;22.40;95.30
8114;DHT22;4099;52.684;9.918;2023-07-08T20:53:27;22.10;98.40
8114;DHT22;4099;52.684;9.918;2023-07-08T20:58:30;21.70;99.50
8114;DHT22;4099;52.684;9.918;2023-07-08T21:03:32;21.50;99.90
8114;DHT22;4099;52.684;9.918;2023-07-08T21:08:35;21.30;99.90
8114;DHT22;4099;52.684;9.918;2023-07-08T21:13:39;21.10;99.90
8114;DHT22;4099;52.684;9.918;2023-07-08T21:18:41;20.90;99.90
8114;DHT22;4099;52.684;9.918;2023-07-08T21:23:44;20.90;99.90
8114;DHT22;4099;52.684;9.918;2023-07-08T21:28:49;20.80;99.90
8114;DHT22;4099;52.684;9.918;2023-07-08T21:33:51;20.70;99.90
8114;DHT22;4099;52.684;9.918;2023-07-08T21:38:56;20.60;99.90
8114;DHT22;4099;52.684;9.918;2023-07-08T21:44:00;20.60;99.90
8114;DHT22;4099;52.684;9.918;2023-07-08T21:49:02;20.60;99.90
8114;DHT22;4099;52.684;9.918;2023-07-08T21:54:04;20.50;99.90
8114;DHT22;4099;52.684;9.918;2023-07-08T21:59:14;20.40;99.90
8114;DHT22;4099;52.684;9.918;2023-07-08T22:04:19;20.20;99.90
8114;DHT22;4099;52.684;9.918;2023-07-08T22:09:21;20.00;99.90
8114;DHT22;4099;52.684;9.918;2023-07-08T22:14:25;19.90;99.90
8114;DHT22;4099;52.684;9.918;2023-07-08T22:19:27;19.70;99.90
8114;DHT22;4099;52.684;9.918;2023-07-08T22:24:29;19.60;99.90
8114;DHT22;4099;52.684;9.918;2023-07-08T22:29:34;19.40;99.90
8114;DHT22;4099;52.684;9.918;2023-07-08T22:34:36;19.30;99.90
8114;DHT22;4099;52.684;9.918;2023-07-08T22:39:38;19.30;99.90
8114;DHT22;4099;52.684;9.918;2023-07-08T22:44:41;19.30;99.90
8114;DHT22;4099;52.684;9.918;2023-07-08T22:49:43;19.30;99.90
8114;DHT22;4099;52.684;9.918;2023-07-08T22:54:45;19.30;99.90
8114;DHT22;4099;52.684;9.918;2023-07-08T22:59:48;19.20;99.90
8114;DHT22;4099;52.684;9.918;2023-07-08T23:04:50;19.10;99.90
8114;DHT22;4099;52.684;9.918;2023-07-08T23:09:52;19.00;99.90
8114;DHT22;4099;52.684;9.918;2023-07-08T23:14:55;18.90;99.90
8114;DHT22;4099;52.684;9.918;2023-07-08T23:19:57;18.90;99.90
8114;DHT22;4099;52.684;9.918;2023-07-08T23:24:59;18.80;99.90
8114;DHT22;4099;52.684;9.918;2023-07-08T23:30:02;18.70;99.90
8114;DHT22;4099;52.684;9.918;2023-07-08T23:35:04;18.80;99.90
8114;DHT22;4099;52.684;9.918;2023-07-08T23:40:10;18.70;99.90
8114;DHT22;4099;52.684;9.918;2023-07-08T23:45:15;18.60;99.90
8114;DHT22;4099;52.684;9.918;2023-07-08T23:50:19;18.60;99.90
8114;DHT22;4099;52.684;9.918;2023-07-08T23:55:21;18.50;99.90
